Hauptseite
METAR-TAF:

METAR-TAF

Flughäfen :

Newquay Cornwall Airport

Newquay Cornwall, England

Breite: 50-26N, Länge: 005-00W, Höhe: 119 m

Beobachtung

Neuester Wetterbericht von vor 6 Stunden und 32 Minuten, um 19:50 UTC
Wind 9 kt aus Nord/Nordost
Temperatur 13°C
Luftfeuchtigkeit 82%
Luftdruck 1031 hPa
Sichtweite 10 km oder mehr
keine Wolken unter 1500 m und keine Kumulonimbus oder Gewitterwolken

METAR: EGHQ 221950Z 03009KT CAVOK 13/10 Q1031

Zeit: 03:22 (02:22 UTC)

Prognose

Neuester Wetterbericht von vor 9 Stunden und 21 Minuten, um 17:01 UTC
Gültige Prognose vom 22 um 18 UTC bis 22 um 21 UTC
Wind 9 kt aus Nord
Sichtweite 10 km oder mehr
keine Wolken unter 1500 m und keine Kumulonimbus oder Gewitterwolken

TAF: EGHQ 221701Z 2218/2221 36009KT CAVOK

Wetterbeobachtungen und Prognosen von mehr als 4000 Flughäfen (METAR und TAF Bericht).

Die verfügbaren Stationen werden durch gelbe und rote Markierungen auf der Karte dargestellt.

Führen Sie die Maus auf sie, um den Namen der Station zu sehen.

Darauf klicken, um die Beobachtung von Wetterbeobachtungen und Prognosen zu sehen.

Um die Karte zu ändern : klicken Sie auf den grünen Tasten mit einem schwarzen Kreuz Zum Vergrößern, auf den grünen Button mit einem Gedankenstrich zu verkleinern, oder auf die grünen Pfeile für benachbarte Karten.


METAR-TAF: